Time;durP1;ratioP1;P1;durP2;ratioP2;P2;SDS_P1;SDS_P2;PMS_P1;PMS_P2;Temp;Humidity;BMP_temperature;BMP_pressure;BME280_temperature;BME280_humidity;BME280_pressure;Samples;Min_cycle;Max_cycle;Signal;HPM_P1;HPM_P2
2022/08/15 00:00:52;;;;;;;7.30;4.95;;;21.50;99.90;;;;;;5039171;28;20130;-75
2022/08/15 00:03:31;;;;;;;9.98;5.25;;;21.50;99.90;;;;;;5039006;28;20075;-70
2022/08/15 00:06:03;;;;;;;8.07;5.22;;;21.50;99.90;;;;;;5055462;28;20040;-70
2022/08/15 00:08:31;;;;;;;6.95;5.57;;;21.40;99.90;;;;;;5038816;28;20037;-71
2022/08/15 00:11:04;;;;;;;9.32;5.97;;;21.40;99.90;;;;;;5055562;28;20438;-76
2022/08/15 00:13:30;;;;;;;7.45;5.60;;;21.40;99.90;;;;;;5038949;28;20136;-77
2022/08/15 00:15:57;;;;;;;6.75;4.55;;;21.40;99.90;;;;;;5055474;28;20487;-76
2022/08/15 00:18:26;;;;;;;6.88;5.43;;;21.40;99.90;;;;;;5038883;28;20036;-77
2022/08/15 00:20:52;;;;;;;8.80;5.18;;;21.30;99.90;;;;;;5055170;28;20043;-75
2022/08/15 00:23:22;;;;;;;7.05;4.63;;;21.30;99.90;;;;;;5055155;28;20049;-75
2022/08/15 00:25:50;;;;;;;7.55;4.97;;;21.30;99.90;;;;;;5055508;28;20506;-71
2022/08/15 00:28:17;;;;;;;9.07;6.50;;;21.30;99.90;;;;;;5055075;28;20170;-75
2022/08/15 00:30:44;;;;;;;8.52;5.50;;;21.30;99.90;;;;;;5038278;28;20032;-76
2022/08/15 00:33:11;;;;;;;8.70;4.88;;;21.30;99.90;;;;;;5022336;28;20123;-76
2022/08/15 00:35:40;;;;;;;8.80;5.22;;;21.30;99.90;;;;;;5055266;28;20082;-77
2022/08/15 00:38:11;;;;;;;9.10;4.95;;;21.30;99.90;;;;;;5038362;28;20101;-76
2022/08/15 00:43:25;;;;;;;9.05;5.45;;;21.20;99.90;;;;;;5054776;28;20055;-70
2022/08/15 00:45:52;;;;;;;8.77;5.68;;;21.20;99.90;;;;;;5054827;28;20048;-71
2022/08/15 00:51:09;;;;;;;9.35;6.07;;;21.20;99.90;;;;;;5056421;28;20036;-70
2022/08/15 00:53:36;;;;;;;13.90;5.88;;;21.10;99.90;;;;;;5059288;28;20095;-76
2022/08/15 00:56:04;;;;;;;10.82;5.95;;;21.10;99.90;;;;;;5058936;28;20123;-75
2022/08/15 00:58:30;;;;;;;8.73;6.25;;;20.90;99.90;;;;;;5042312;28;20051;-74
2022/08/15 01:00:56;;;;;;;6.90;5.13;;;20.90;99.90;;;;;;5059125;28;20423;-76
2022/08/15 01:03:29;;;;;;;10.13;6.10;;;20.90;99.90;;;;;;5042223;28;20041;-75
2022/08/15 01:05:59;;;;;;;10.15;6.47;;;20.90;99.90;;;;;;5042368;28;20086;-76
2022/08/15 01:08:28;;;;;;;8.80;6.03;;;20.80;99.90;;;;;;5058618;28;20087;-76
2022/08/15 01:10:56;;;;;;;12.15;6.13;;;20.80;99.90;;;;;;5058635;28;20041;-77
2022/08/15 01:13:23;;;;;;;9.43;5.80;;;20.80;99.90;;;;;;5042191;28;20364;-77
2022/08/15 01:15:48;;;;;;;7.78;5.70;;;20.80;99.90;;;;;;5042138;28;20115;-70
2022/08/15 01:18:15;;;;;;;8.88;6.25;;;20.80;99.90;;;;;;5058446;28;20076;-77
2022/08/15 01:20:43;;;;;;;11.05;6.75;;;20.70;99.90;;;;;;5058461;28;20045;-74
2022/08/15 01:23:41;;;;;;;7.38;5.40;;;20.70;99.90;;;;;;5058385;28;20045;-76
2022/08/15 01:26:07;;;;;;;9.20;5.75;;;20.70;99.90;;;;;;5025492;28;20049;-70
2022/08/15 01:28:37;;;;;;;9.32;6.38;;;20.70;99.90;;;;;;5058341;28;20101;-75
2022/08/15 01:31:07;;;;;;;10.02;6.25;;;20.70;99.90;;;;;;5041933;28;20511;-71
2022/08/15 01:33:43;;;;;;;10.40;6.35;;;20.70;99.90;;;;;;5058214;28;20119;-77
2022/08/15 01:36:10;;;;;;;10.18;6.28;;;20.70;99.90;;;;;;5058207;28;20083;-77
2022/08/15 01:38:39;;;;;;;10.18;6.78;;;20.80;99.90;;;;;;5058008;28;20650;-74
2022/08/15 01:41:26;;;;;;;8.05;5.43;;;20.80;99.90;;;;;;5058038;28;20094;-74
2022/08/15 01:44:21;;;;;;;8.63;6.13;;;20.80;99.90;;;;;;5058299;28;20404;-72
2022/08/15 01:47:04;;;;;;;11.43;6.47;;;20.80;99.90;;;;;;5047611;28;20052;-70
2022/08/15 01:49:39;;;;;;;7.95;5.68;;;20.90;99.90;;;;;;5057956;28;20128;-75
2022/08/15 01:52:06;;;;;;;9.23;6.30;;;20.90;99.90;;;;;;5058175;28;20395;-74
2022/08/15 01:54:38;;;;;;;10.00;5.35;;;21.00;99.90;;;;;;5058098;28;20557;-77
2022/08/15 01:57:05;;;;;;;9.25;5.93;;;21.00;99.90;;;;;;5041206;28;20430;-76
2022/08/15 01:59:32;;;;;;;9.93;5.38;;;21.00;99.90;;;;;;5057976;28;20040;-70
2022/08/15 02:02:02;;;;;;;7.78;5.07;;;21.00;99.90;;;;;;5040555;28;20080;-70
2022/08/15 02:04:37;;;;;;;10.02;6.15;;;21.00;99.90;;;;;;5040943;28;20044;-77
2022/08/15 02:07:10;;;;;;;10.40;5.53;;;21.00;99.90;;;;;;5041026;28;20076;-77
2022/08/15 02:09:40;;;;;;;12.93;5.82;;;21.10;99.90;;;;;;5057563;28;20040;-75
2022/08/15 02:12:08;;;;;;;7.63;5.38;;;21.10;99.90;;;;;;5075486;28;20049;-77
2022/08/15 02:14:35;;;;;;;8.98;5.82;;;21.10;99.90;;;;;;5057580;28;20515;-70
2022/08/15 02:17:02;;;;;;;8.15;5.32;;;21.10;99.90;;;;;;5057488;28;20040;-77
2022/08/15 02:19:28;;;;;;;8.38;5.55;;;21.10;99.90;;;;;;5057450;28;20044;-71
2022/08/15 02:21:55;;;;;;;9.75;5.70;;;21.10;99.90;;;;;;5057307;28;20505;-70
2022/08/15 02:24:23;;;;;;;10.27;5.82;;;21.10;99.90;;;;;;5040734;28;20407;-77
2022/08/15 02:26:51;;;;;;;8.20;5.28;;;21.00;99.90;;;;;;5057510;28;20483;-74
2022/08/15 02:29:17;;;;;;;7.35;5.28;;;21.10;99.90;;;;;;5040721;28;20055;-70
2022/08/15 02:31:43;;;;;;;9.85;5.20;;;21.00;99.90;;;;;;5057099;28;20090;-70
2022/08/15 02:34:10;;;;;;;9.18;5.97;;;21.00;99.90;;;;;;5024125;28;20036;-77
2022/08/15 02:36:38;;;;;;;12.45;5.88;;;21.00;99.90;;;;;;5024032;28;20028;-75
2022/08/15 02:39:08;;;;;;;9.20;6.32;;;20.90;99.90;;;;;;5057286;28;20421;-75
2022/08/15 02:41:38;;;;;;;9.25;5.93;;;20.90;99.90;;;;;;5057082;28;20040;-75
2022/08/15 02:44:04;;;;;;;9.30;5.88;;;20.90;99.90;;;;;;5056877;28;20110;-72
2022/08/15 02:46:31;;;;;;;9.70;6.35;;;20.90;99.90;;;;;;5040638;28;20040;-73
2022/08/15 02:48:58;;;;;;;8.95;5.82;;;20.90;99.90;;;;;;5056715;28;20546;-77
2022/08/15 02:51:25;;;;;;;8.93;6.50;;;20.90;99.90;;;;;;5040204;28;20419;-77
2022/08/15 02:53:52;;;;;;;10.10;6.55;;;20.90;99.90;;;;;;5040366;28;20070;-75
2022/08/15 02:56:22;;;;;;;8.15;5.90;;;20.80;99.90;;;;;;5040430;28;20049;-77
2022/08/15 02:58:49;;;;;;;11.83;7.40;;;20.80;99.90;;;;;;5056726;28;20044;-76
2022/08/15 03:01:16;;;;;;;8.45;6.20;;;20.70;99.90;;;;;;5040221;28;20127;-71
2022/08/15 03:03:45;;;;;;;10.13;6.07;;;20.70;99.90;;;;;;5056522;28;20118;-75
2022/08/15 03:06:13;;;;;;;11.50;6.53;;;20.70;99.90;;;;;;5056527;28;20056;-77
2022/08/15 03:08:40;;;;;;;10.85;6.45;;;20.60;99.90;;;;;;5056409;28;20115;-75
2022/08/15 03:11:07;;;;;;;10.35;6.53;;;20.60;99.90;;;;;;5039836;28;20036;-71
2022/08/15 03:13:34;;;;;;;10.35;6.38;;;20.50;99.90;;;;;;5055887;28;20166;-76
2022/08/15 03:16:01;;;;;;;8.90;6.40;;;20.50;99.90;;;;;;5056294;28;20041;-76
2022/08/15 03:18:30;;;;;;;10.18;6.57;;;20.40;99.90;;;;;;5039877;28;20073;-75
2022/08/15 03:20:57;;;;;;;8.93;6.45;;;20.40;99.90;;;;;;5056228;28;20036;-77
2022/08/15 03:23:27;;;;;;;11.05;7.57;;;20.40;99.90;;;;;;5056174;28;20424;-77
2022/08/15 03:25:59;;;;;;;10.98;7.50;;;20.30;99.90;;;;;;5056132;28;20472;-76
2022/08/15 03:28:28;;;;;;;12.35;7.22;;;20.20;99.90;;;;;;5056173;28;20507;-77
2022/08/15 03:30:55;;;;;;;10.17;6.90;;;20.10;99.90;;;;;;5039472;28;20037;-77
2022/08/15 03:33:21;;;;;;;12.18;7.00;;;20.10;99.90;;;;;;5056219;28;20492;-77
2022/08/15 03:35:49;;;;;;;10.88;6.72;;;20.00;99.90;;;;;;5056238;28;20032;-70
2022/08/15 03:38:15;;;;;;;12.68;7.10;;;20.00;99.90;;;;;;5055706;28;20082;-70
2022/08/15 03:40:43;;;;;;;10.77;7.15;;;19.90;99.90;;;;;;5055842;28;20094;-76
2022/08/15 03:43:15;;;;;;;9.35;6.43;;;19.90;99.90;;;;;;5055809;28;20048;-75
2022/08/15 03:45:47;;;;;;;10.57;7.32;;;19.80;99.90;;;;;;5055729;28;20055;-76
2022/08/15 03:48:13;;;;;;;9.93;7.05;;;19.80;99.90;;;;;;5055581;28;20098;-75
2022/08/15 03:50:39;;;;;;;11.50;6.72;;;19.80;99.90;;;;;;5055732;28;20033;-76
2022/08/15 03:53:06;;;;;;;9.77;6.70;;;19.80;99.90;;;;;;5022582;28;20037;-77
2022/08/15 03:55:34;;;;;;;13.20;7.60;;;19.70;99.90;;;;;;5055953;28;20079;-77
2022/08/15 03:58:01;;;;;;;12.55;7.05;;;19.70;99.90;;;;;;5039075;28;20036;-70
2022/08/15 04:00:34;;;;;;;12.30;6.93;;;19.70;99.90;;;;;;5055578;28;20041;-77
2022/08/15 04:03:11;;;;;;;13.27;7.28;;;19.60;99.90;;;;;;5055488;28;20079;-76
2022/08/15 04:05:38;;;;;;;11.63;6.82;;;19.60;99.90;;;;;;5055634;28;20131;-75
2022/08/15 04:08:06;;;;;;;12.65;7.55;;;19.70;99.90;;;;;;5055337;28;20044;-77
2022/08/15 04:10:33;;;;;;;10.10;7.50;;;19.70;99.90;;;;;;5055425;28;20115;-75
2022/08/15 04:12:59;;;;;;;10.05;7.22;;;19.60;99.90;;;;;;5055258;28;20078;-75
2022/08/15 04:15:27;;;;;;;15.77;7.68;;;19.70;99.90;;;;;;5055376;28;20043;-74
2022/08/15 04:17:54;;;;;;;12.82;8.10;;;19.70;99.90;;;;;;5038939;28;20497;-74
2022/08/15 04:20:21;;;;;;;13.05;7.85;;;19.70;99.90;;;;;;5055215;28;20044;-76
2022/08/15 04:22:49;;;;;;;11.15;6.55;;;19.70;99.90;;;;;;5038751;28;20411;-71
2022/08/15 04:25:27;;;;;;;12.50;7.93;;;19.80;99.90;;;;;;5037761;28;20123;-75
2022/08/15 04:27:56;;;;;;;12.10;7.60;;;19.80;99.90;;;;;;5055013;28;20385;-76
2022/08/15 04:30:25;;;;;;;11.75;7.32;;;19.80;99.90;;;;;;5055199;28;20043;-76
2022/08/15 04:32:54;;;;;;;10.13;5.78;;;19.90;99.90;;;;;;5055713;28;20118;-74
2022/08/15 04:35:20;;;;;;;9.88;6.10;;;20.00;99.90;;;;;;5038497;28;20040;-76
2022/08/15 04:37:46;;;;;;;8.80;6.20;;;20.10;99.90;;;;;;5005746;28;20546;-75
2022/08/15 04:40:14;;;;;;;11.02;5.55;;;20.10;99.90;;;;;;5038553;28;20098;-77
2022/08/15 04:42:53;;;;;;;8.88;5.95;;;20.20;99.90;;;;;;5038438;28;20075;-76
2022/08/15 04:45:22;;;;;;;7.18;5.50;;;20.30;99.90;;;;;;5054992;28;20040;-76
2022/08/15 04:47:49;;;;;;;8.93;5.60;;;20.40;99.90;;;;;;5038209;28;20119;-76
2022/08/15 04:50:15;;;;;;;7.47;5.57;;;20.40;99.90;;;;;;5054906;28;20040;-76
2022/08/15 04:52:59;;;;;;;9.65;6.30;;;20.40;99.90;;;;;;5022012;28;20114;-71
2022/08/15 04:55:26;;;;;;;11.05;6.57;;;20.50;99.90;;;;;;5054858;28;20139;-71
2022/08/15 04:57:53;;;;;;;10.05;6.15;;;20.50;99.90;;;;;;5054853;28;20380;-76
2022/08/15 05:00:22;;;;;;;8.45;5.60;;;20.50;99.90;;;;;;5054789;28;20173;-77
2022/08/15 05:03:06;;;;;;;11.10;6.43;;;20.50;99.90;;;;;;5054968;28;20051;-71
2022/08/15 05:05:42;;;;;;;10.27;7.00;;;20.50;99.90;;;;;;5038488;28;20037;-71
2022/08/15 05:08:09;;;;;;;8.55;5.78;;;20.50;99.90;;;;;;5054873;28;20040;-75
2022/08/15 05:10:35;;;;;;;12.38;7.35;;;20.50;99.90;;;;;;5054709;28;20427;-75
2022/08/15 05:13:13;;;;;;;11.98;6.75;;;20.50;99.90;;;;;;5038168;28;20254;-76
2022/08/15 05:15:40;;;;;;;11.35;7.03;;;20.50;99.90;;;;;;5054704;28;20085;-75
2022/08/15 05:18:06;;;;;;;10.00;6.88;;;20.60;99.90;;;;;;5054648;28;20412;-70
2022/08/15 05:20:32;;;;;;;21.45;7.03;;;20.60;99.90;;;;;;5038217;28;20044;-76
2022/08/15 05:23:05;;;;;;;8.93;6.35;;;20.60;99.90;;;;;;5038390;28;20109;-73
2022/08/15 05:25:33;;;;;;;8.57;6.47;;;20.70;99.90;;;;;;5056668;28;20438;-70
2022/08/15 05:28:00;;;;;;;10.88;6.80;;;20.70;99.90;;;;;;5038119;28;20037;-76
2022/08/15 05:30:26;;;;;;;8.60;6.80;;;20.80;99.90;;;;;;5054817;28;20506;-74
2022/08/15 05:33:35;;;;;;;9.50;6.82;;;20.80;99.90;;;;;;5054679;28;20041;-73
2022/08/15 05:36:02;;;;;;;9.32;6.68;;;20.80;99.90;;;;;;5037603;28;20399;-77
2022/08/15 05:38:55;;;;;;;12.10;7.10;;;20.90;99.90;;;;;;5038059;28;20060;-71
2022/08/15 05:41:39;;;;;;;11.13;6.30;;;20.90;99.90;;;;;;5071548;28;20142;-78
2022/08/15 05:44:39;;;;;;;9.57;6.25;;;20.90;99.90;;;;;;5038203;28;20471;-77
2022/08/15 05:47:09;;;;;;;9.40;6.75;;;21.00;99.90;;;;;;5038212;28;20467;-78
2022/08/15 05:49:57;;;;;;;10.15;6.30;;;21.00;99.90;;;;;;5054796;28;20381;-75
2022/08/15 05:52:26;;;;;;;9.05;6.50;;;21.10;99.90;;;;;;5054920;28;20554;-76
2022/08/15 05:55:16;;;;;;;10.52;6.38;;;21.10;99.90;;;;;;5054602;28;20124;-76
2022/08/15 05:57:47;;;;;;;9.20;5.82;;;21.10;99.90;;;;;;5055041;28;20041;-69
2022/08/15 06:00:15;;;;;;;8.88;5.82;;;21.10;99.90;;;;;;5054488;28;20036;-75
2022/08/15 06:02:52;;;;;;;10.68;6.18;;;21.20;99.90;;;;;;5054644;28;20045;-70
2022/08/15 06:05:32;;;;;;;7.97;5.93;;;21.20;99.90;;;;;;5055051;28;20492;-74
2022/08/15 06:08:01;;;;;;;8.10;5.72;;;21.20;99.90;;;;;;5037693;28;20118;-74
2022/08/15 06:10:38;;;;;;;10.20;5.97;;;21.20;99.90;;;;;;5054621;28;20041;-70
2022/08/15 06:13:20;;;;;;;9.98;5.45;;;21.30;99.90;;;;;;5055199;28;20123;-74
2022/08/15 06:15:54;;;;;;;8.60;5.93;;;21.30;99.90;;;;;;5038492;28;20106;-70
2022/08/15 06:18:22;;;;;;;10.63;6.00;;;21.30;99.90;;;;;;5054332;28;20442;-75
2022/08/15 06:21:14;;;;;;;9.48;5.20;;;21.40;99.90;;;;;;5055421;28;20550;-75
2022/08/15 06:24:05;;;;;;;7.75;5.38;;;21.40;99.90;;;;;;5054362;28;20077;-75
2022/08/15 06:26:44;;;;;;;8.30;5.50;;;21.50;99.90;;;;;;5054383;28;20149;-71
2022/08/15 06:29:28;;;;;;;11.82;6.55;;;21.60;99.90;;;;;;5053724;28;20051;-76
2022/08/15 06:32:26;;;;;;;8.60;5.38;;;21.70;99.90;;;;;;5054498;28;20036;-77
2022/08/15 06:35:16;;;;;;;10.70;6.25;;;21.70;99.90;;;;;;5024531;28;20055;-78
2022/08/15 06:38:27;;;;;;;7.77;5.97;;;22.50;99.90;;;;;;5028091;28;20065;-79
2022/08/15 06:41:23;;;;;;;10.02;6.07;;;21.90;99.90;;;;;;5014208;28;20647;-78
2022/08/15 06:43:49;;;;;;;8.50;5.50;;;21.90;99.90;;;;;;5034475;28;20041;-78
2022/08/15 06:46:15;;;;;;;7.32;5.68;;;22.00;99.90;;;;;;5006291;28;20049;-77
2022/08/15 06:48:42;;;;;;;9.20;5.55;;;22.10;99.90;;;;;;5016455;28;20052;-78
2022/08/15 06:51:11;;;;;;;10.18;5.80;;;22.20;99.90;;;;;;5001685;28;20041;-77
2022/08/15 06:53:53;;;;;;;10.82;5.65;;;22.20;99.90;;;;;;5033812;28;20053;-74
2022/08/15 06:56:28;;;;;;;8.93;5.53;;;22.30;99.90;;;;;;5036528;28;20504;-80
2022/08/15 06:59:33;;;;;;;9.02;5.82;;;22.30;99.90;;;;;;5033604;28;20099;-81
2022/08/15 07:01:59;;;;;;;7.78;5.45;;;22.30;99.90;;;;;;5033791;28;20049;-80
2022/08/15 07:04:56;;;;;;;8.73;5.65;;;22.30;99.90;;;;;;5017374;28;20095;-78
2022/08/15 07:07:47;;;;;;;8.15;5.90;;;22.40;99.90;;;;;;5016988;28;20050;-81
2022/08/15 07:10:32;;;;;;;11.43;5.68;;;22.40;99.90;;;;;;5017138;28;20042;-81
2022/08/15 07:13:12;;;;;;;13.48;6.78;;;22.40;99.90;;;;;;5016949;28;20072;-81
2022/08/15 07:15:57;;;;;;;10.35;6.35;;;22.50;99.90;;;;;;5017039;28;20043;-81
2022/08/15 07:18:28;;;;;;;10.00;6.32;;;22.60;99.90;;;;;;5017367;28;20068;-82
2022/08/15 07:21:02;;;;;;;9.77;6.80;;;22.60;99.90;;;;;;5016600;28;20045;-81
2022/08/15 07:23:30;;;;;;;11.07;6.15;;;22.60;99.90;;;;;;5033227;28;20460;-82
2022/08/15 07:26:04;;;;;;;9.15;6.15;;;22.70;99.90;;;;;;5017042;28;20508;-81
2022/08/15 07:28:33;;;;;;;11.30;6.93;;;22.80;99.90;;;;;;5018343;28;20056;-81
2022/08/15 07:31:28;;;;;;;8.52;6.22;;;22.80;99.90;;;;;;5016734;28;20037;-81
2022/08/15 07:33:56;;;;;;;9.68;6.65;;;23.00;99.90;;;;;;5013438;28;20048;-82
2022/08/15 07:36:34;;;;;;;6.78;5.70;;;23.10;99.90;;;;;;5032985;28;20512;-82
2022/08/15 07:39:19;;;;;;;11.65;6.82;;;23.20;99.90;;;;;;5017871;28;20053;-81
2022/08/15 07:41:45;;;;;;;11.45;6.63;;;23.30;99.90;;;;;;5016301;28;20458;-79
2022/08/15 07:44:29;;;;;;;9.60;5.72;;;23.40;99.90;;;;;;5016991;28;20045;-81
2022/08/15 07:46:57;;;;;;;8.05;5.25;;;23.50;99.90;;;;;;5017322;28;20041;-81
2022/08/15 07:49:32;;;;;;;7.65;5.10;;;23.60;99.90;;;;;;5016578;28;20041;-81
2022/08/15 07:52:01;;;;;;;8.15;5.28;;;23.60;99.90;;;;;;5016917;28;20044;-82
2022/08/15 07:54:29;;;;;;;7.70;5.50;;;23.80;99.90;;;;;;5016791;28;20414;-81
2022/08/15 07:56:58;;;;;;;9.80;5.65;;;23.90;99.90;;;;;;5016373;28;20041;-78
2022/08/15 07:59:31;;;;;;;8.20;4.93;;;23.90;99.90;;;;;;5033170;28;20504;-82
2022/08/15 08:02:28;;;;;;;6.88;4.97;;;24.10;99.90;;;;;;5033412;28;20053;-78
2022/08/15 08:04:56;;;;;;;7.70;4.82;;;24.10;99.90;;;;;;5016971;28;20389;-82
2022/08/15 08:07:32;;;;;;;6.03;4.65;;;24.30;99.90;;;;;;5017484;28;20033;-82
2022/08/15 08:10:03;;;;;;;7.00;5.15;;;24.40;99.90;;;;;;5017722;28;20041;-81
2022/08/15 08:12:54;;;;;;;7.38;5.10;;;24.40;99.90;;;;;;5019642;28;20172;-82
2022/08/15 08:15:32;;;;;;;8.32;4.68;;;24.50;99.90;;;;;;5017802;28;20512;-81
2022/08/15 08:18:05;;;;;;;7.90;4.70;;;24.50;99.90;;;;;;5033616;28;20037;-82
2022/08/15 08:20:56;;;;;;;6.22;4.28;;;24.70;99.90;;;;;;5016895;28;20077;-82
2022/08/15 08:23:53;;;;;;;8.15;3.85;;;24.90;99.90;;;;;;5033238;28;20037;-78
2022/08/15 08:26:37;;;;;;;7.22;4.20;;;24.90;99.90;;;;;;5008445;28;20049;-78
2022/08/15 08:29:28;;;;;;;6.38;3.90;;;24.90;99.90;;;;;;5032027;28;20041;-78
2022/08/15 08:32:14;;;;;;;6.40;3.65;;;25.00;99.90;;;;;;5016135;28;20041;-82
2022/08/15 08:34:45;;;;;;;5.47;4.03;;;25.20;99.90;;;;;;5035070;28;20045;-80
2022/08/15 08:37:41;;;;;;;7.30;3.78;;;25.10;99.90;;;;;;5016349;28;20053;-80
2022/08/15 08:43:04;;;;;;;6.75;3.30;;;25.60;99.90;;;;;;5032285;28;20150;-80
2022/08/15 08:45:46;;;;;;;6.30;3.70;;;25.60;99.90;;;;;;5015748;28;20057;-81
2022/08/15 08:48:20;;;;;;;5.82;3.67;;;25.60;99.90;;;;;;5032462;28;20053;-82
2022/08/15 08:51:14;;;;;;;4.60;3.60;;;25.70;99.90;;;;;;5015826;28;20504;-81
2022/08/15 08:54:15;;;;;;;5.90;3.95;;;25.70;99.90;;;;;;5010760;28;20629;-81
2022/08/15 08:56:46;;;;;;;6.75;3.47;;;25.70;99.90;;;;;;5032815;28;20054;-78
2022/08/15 08:59:24;;;;;;;5.30;3.47;;;25.90;99.90;;;;;;5015596;28;20046;-73
2022/08/15 09:01:56;;;;;;;5.38;3.88;;;26.20;99.90;;;;;;5032223;28;20049;-72
2022/08/15 09:04:29;;;;;;;5.30;3.60;;;26.30;99.90;;;;;;5031561;28;20050;-74
2022/08/15 09:06:56;;;;;;;5.25;3.63;;;26.40;99.90;;;;;;5031652;28;20056;-72
2022/08/15 09:09:33;;;;;;;4.53;3.20;;;26.60;99.90;;;;;;5031440;28;20068;-78
2022/08/15 09:15:25;;;;;;;5.95;3.30;;;26.70;99.90;;;;;;5035402;28;20132;-77
2022/08/15 09:17:55;;;;;;;6.97;3.75;;;26.80;99.90;;;;;;5035496;28;20037;-74
2022/08/15 09:20:34;;;;;;;4.90;3.45;;;26.90;99.90;;;;;;5035338;28;20052;-74
2022/08/15 09:23:01;;;;;;;6.25;3.70;;;27.00;99.90;;;;;;5035268;28;20038;-72
2022/08/15 09:25:29;;;;;;;5.47;3.40;;;;;;;;;;5019258;28;20501;-70
2022/08/15 09:28:23;;;;;;;6.43;3.42;;;27.10;99.90;;;;;;5035103;28;20041;-73
2022/08/15 09:30:49;;;;;;;5.85;3.63;;;27.30;99.90;;;;;;5035175;28;20385;-70
2022/08/15 09:33:36;;;;;;;4.80;3.05;;;27.40;99.90;;;;;;5018888;28;20044;-72
2022/08/15 09:36:17;;;;;;;6.22;3.53;;;27.40;99.90;;;;;;5018540;28;20041;-75
2022/08/15 09:39:20;;;;;;;4.70;2.97;;;27.40;99.90;;;;;;5018245;28;20064;-72
2022/08/15 09:41:58;;;;;;;4.35;3.08;;;27.50;99.90;;;;;;5018415;28;20076;-73
2022/08/15 09:44:32;;;;;;;4.65;3.25;;;27.70;99.90;;;;;;5034866;28;20183;-77
2022/08/15 09:47:15;;;;;;;5.07;3.03;;;;;;;;;;5018379;28;20044;-74
2022/08/15 09:49:56;;;;;;;4.85;3.03;;;28.00;99.00;;;;;;5018290;28;20071;-73
2022/08/15 09:52:59;;;;;;;5.85;2.97;;;28.10;98.50;;;;;;5034736;28;20037;-77
2022/08/15 09:55:46;;;;;;;4.32;2.83;;;28.00;99.10;;;;;;5018232;28;20048;-71
2022/08/15 09:58:18;;;;;;;5.45;3.25;;;27.90;98.70;;;;;;5035060;28;20049;-71
2022/08/15 10:01:09;;;;;;;3.83;2.92;;;27.80;99.10;;;;;;5018045;28;20042;-71
2022/08/15 10:03:44;;;;;;;4.90;3.25;;;27.70;99.10;;;;;;5034585;28;20443;-73
2022/08/15 10:06:16;;;;;;;5.18;2.92;;;27.60;98.50;;;;;;5034682;28;20400;-75
2022/08/15 10:08:52;;;;;;;4.00;3.03;;;27.50;98.60;;;;;;5017883;28;20068;-72
2022/08/15 10:11:24;;;;;;;4.72;2.80;;;27.60;98.50;;;;;;5034671;28;20149;-71
2022/08/15 10:14:02;;;;;;;4.18;2.95;;;27.70;98.00;;;;;;5018162;28;20041;-73
2022/08/15 10:16:39;;;;;;;4.78;3.05;;;27.90;97.70;;;;;;5034616;28;20046;-78
2022/08/15 10:19:30;;;;;;;4.05;3.03;;;28.00;96.60;;;;;;5034337;28;20046;-72
2022/08/15 10:22:02;;;;;;;4.60;3.33;;;27.90;96.00;;;;;;5034170;28;20041;-72
2022/08/15 10:24:36;;;;;;;4.22;3.08;;;27.90;97.40;;;;;;5033307;28;20116;-76
2022/08/15 10:27:17;;;;;;;7.40;3.63;;;27.90;97.40;;;;;;5017592;28;20089;-76
2022/08/15 10:29:48;;;;;;;5.43;3.60;;;28.00;97.20;;;;;;5034287;28;20046;-81
2022/08/15 10:32:32;;;;;;;4.93;3.10;;;28.20;97.50;;;;;;5017481;28;20045;-75
2022/08/15 10:35:27;;;;;;;5.93;3.80;;;28.20;97.50;;;;;;5034352;28;20079;-74
2022/08/15 10:37:58;;;;;;;6.28;3.83;;;28.20;98.00;;;;;;5033676;28;20049;-75
2022/08/15 10:40:40;;;;;;;5.65;4.18;;;28.00;98.10;;;;;;5033885;28;20057;-74
2022/08/15 10:43:27;;;;;;;5.93;4.43;;;27.90;98.20;;;;;;5034165;28;20048;-73
2022/08/15 10:45:59;;;;;;;7.00;4.72;;;27.80;98.30;;;;;;5033743;28;20468;-73
2022/08/15 10:48:37;;;;;;;8.50;4.47;;;27.70;98.60;;;;;;5033685;28;20103;-78
2022/08/15 10:51:38;;;;;;;9.73;5.53;;;27.50;99.10;;;;;;5033630;28;20444;-74
2022/08/15 10:54:17;;;;;;;7.50;5.18;;;27.30;99.00;;;;;;5018541;28;20045;-70
2022/08/15 10:56:42;;;;;;;8.60;5.63;;;27.10;99.20;;;;;;5033841;28;20037;-74
2022/08/15 10:59:19;;;;;;;8.82;5.10;;;27.00;99.20;;;;;;5033545;28;20385;-73
2022/08/15 11:01:47;;;;;;;9.13;5.25;;;26.80;99.30;;;;;;5033442;28;20037;-78
2022/08/15 11:04:34;;;;;;;7.68;4.93;;;26.70;99.40;;;;;;5017310;28;20072;-72
2022/08/15 11:07:03;;;;;;;9.27;5.07;;;26.60;99.60;;;;;;5033273;28;20413;-76
2022/08/15 11:09:29;;;;;;;7.55;5.30;;;26.40;99.70;;;;;;5017207;28;20068;-77
2022/08/15 11:11:57;;;;;;;9.07;5.90;;;26.30;99.90;;;;;;5017375;28;20042;-73
2022/08/15 11:14:39;;;;;;;9.10;5.93;;;26.30;99.90;;;;;;5033825;28;20034;-73
2022/08/15 11:17:16;;;;;;;10.02;5.32;;;26.30;99.90;;;;;;5033138;28;20029;-73
2022/08/15 11:19:51;;;;;;;8.18;5.32;;;26.30;99.90;;;;;;5016725;28;20103;-73
2022/08/15 11:22:35;;;;;;;6.80;5.40;;;26.30;99.90;;;;;;5033178;28;20401;-78
2022/08/15 11:25:13;;;;;;;9.13;5.35;;;26.50;99.90;;;;;;5033011;28;20496;-71
2022/08/15 11:27:39;;;;;;;8.70;5.78;;;26.50;99.90;;;;;;5032985;28;20095;-70
2022/08/15 11:30:08;;;;;;;7.18;5.47;;;26.70;99.90;;;;;;5016523;28;20033;-73
2022/08/15 11:32:38;;;;;;;7.75;5.13;;;26.80;99.90;;;;;;5032800;28;20048;-74
2022/08/15 11:35:26;;;;;;;10.85;5.45;;;26.80;99.90;;;;;;5016379;28;20041;-74
2022/08/15 11:37:55;;;;;;;7.50;4.50;;;27.00;99.90;;;;;;5032741;28;20053;-78
2022/08/15 11:40:21;;;;;;;10.25;5.72;;;27.00;99.90;;;;;;5032625;28;20456;-79
2022/08/15 11:42:50;;;;;;;7.72;5.45;;;27.00;99.90;;;;;;5032692;28;20041;-79
2022/08/15 11:45:23;;;;;;;8.98;5.65;;;26.90;99.90;;;;;;5032884;28;20476;-71
2022/08/15 11:47:53;;;;;;;7.50;5.32;;;26.90;99.90;;;;;;5032973;28;20041;-74
2022/08/15 11:50:41;;;;;;;7.20;5.03;;;26.80;99.90;;;;;;5032626;28;20041;-72
2022/08/15 11:53:11;;;;;;;7.65;5.57;;;26.70;99.60;;;;;;5032502;28;20075;-72
2022/08/15 11:55:39;;;;;;;10.15;6.03;;;26.60;99.70;;;;;;5016289;28;20032;-72
2022/08/15 11:58:13;;;;;;;8.63;5.25;;;26.50;99.50;;;;;;5032659;28;20050;-79
2022/08/15 12:00:48;;;;;;;7.57;5.10;;;26.50;99.50;;;;;;5032335;28;20041;-74
2022/08/15 12:03:21;;;;;;;8.68;5.82;;;26.40;99.70;;;;;;5032257;28;20405;-78
2022/08/15 12:05:49;;;;;;;9.73;6.43;;;26.30;99.90;;;;;;5032298;28;20475;-71
2022/08/15 12:08:32;;;;;;;7.28;4.93;;;26.40;99.90;;;;;;5032135;28;20037;-74
2022/08/15 12:11:14;;;;;;;5.75;4.63;;;26.40;99.90;;;;;;5032107;28;20045;-74
2022/08/15 12:14:02;;;;;;;6.97;5.07;;;26.60;99.90;;;;;;5032444;28;20034;-72
2022/08/15 12:16:29;;;;;;;7.50;5.13;;;26.70;99.90;;;;;;5031996;28;20087;-74
2022/08/15 12:18:55;;;;;;;7.82;4.32;;;26.80;99.90;;;;;;5015587;28;20041;-71
2022/08/15 12:21:23;;;;;;;7.93;4.93;;;27.00;99.90;;;;;;5015564;28;20416;-74
2022/08/15 12:23:54;;;;;;;7.72;4.82;;;27.10;99.70;;;;;;5032015;28;20041;-78
2022/08/15 12:26:23;;;;;;;6.57;4.28;;;27.20;99.00;;;;;;5032079;28;20378;-72
2022/08/15 12:28:48;;;;;;;6.68;4.63;;;27.30;99.20;;;;;;5031913;28;20444;-71
2022/08/15 12:31:27;;;;;;;7.10;4.43;;;27.40;99.50;;;;;;5015438;28;20037;-73
2022/08/15 12:34:20;;;;;;;6.60;4.82;;;27.50;99.90;;;;;;5015378;28;20437;-73
2022/08/15 12:36:46;;;;;;;7.55;4.53;;;27.40;99.90;;;;;;5032862;28;20056;-73
2022/08/15 12:39:14;;;;;;;4.95;4.28;;;27.30;99.90;;;;;;5071709;28;20048;-70
2022/08/15 12:41:43;;;;;;;6.70;4.43;;;27.50;99.90;;;;;;5055042;28;20409;-78
2022/08/15 12:44:19;;;;;;;5.25;3.78;;;27.30;99.90;;;;;;5055332;28;20044;-78
2022/08/15 12:46:45;;;;;;;6.65;4.07;;;27.40;99.90;;;;;;5054170;28;20044;-77
2022/08/15 12:49:11;;;;;;;5.45;4.30;;;27.30;99.90;;;;;;5038512;28;20506;-73
2022/08/15 12:51:36;;;;;;;6.25;4.68;;;27.20;99.90;;;;;;5005770;28;20040;-73
2022/08/15 12:54:03;;;;;;;7.00;4.47;;;27.10;99.90;;;;;;5038382;28;20036;-78
2022/08/15 12:56:29;;;;;;;9.48;5.20;;;27.20;99.90;;;;;;5055045;28;20048;-78
2022/08/15 12:58:54;;;;;;;8.65;5.63;;;27.20;99.90;;;;;;5054758;28;20561;-74
2022/08/15 13:01:20;;;;;;;8.07;5.10;;;27.30;99.90;;;;;;5038197;28;20036;-70
2022/08/15 13:03:46;;;;;;;7.70;5.00;;;27.30;99.90;;;;;;5038233;28;20049;-73
2022/08/15 13:06:20;;;;;;;10.20;5.13;;;27.40;99.90;;;;;;5054994;28;20055;-73
2022/08/15 13:08:46;;;;;;;7.53;5.00;;;27.30;99.90;;;;;;5054689;28;20043;-70
2022/08/15 13:11:12;;;;;;;7.97;5.40;;;27.40;99.90;;;;;;5055276;28;20045;-70
2022/08/15 13:13:38;;;;;;;7.53;5.20;;;27.40;99.90;;;;;;5038066;28;20037;-70
2022/08/15 13:16:06;;;;;;;7.85;5.35;;;27.30;99.90;;;;;;5054699;28;20051;-74
2022/08/15 13:18:33;;;;;;;9.15;5.78;;;27.20;99.90;;;;;;5054631;28;20037;-72
2022/08/15 13:23:44;;;;;;;8.43;5.70;;;27.20;99.90;;;;;;5054877;28;20044;-81
2022/08/15 13:26:14;;;;;;;7.70;4.72;;;27.20;99.90;;;;;;5038193;28;20040;-76
2022/08/15 13:28:42;;;;;;;6.88;4.72;;;27.20;99.90;;;;;;5054607;28;20103;-82
2022/08/15 13:31:09;;;;;;;7.10;5.20;;;27.10;99.90;;;;;;5038021;28;20044;-82
2022/08/15 13:33:37;;;;;;;7.20;5.22;;;27.00;99.90;;;;;;5037880;28;20110;-83